首页
METAR-TAF:

METAR-TAF

机场 :

摩爾曼斯克, 俄罗斯

纬度: 68-58N, 经度: 033-03E, 海拔: 51米

当前天气观测

该预报发布于15分钟前的18:30 UTC
风速4节,风向东转东北
温度 8°C
湿度 93%
气压 1017 hPa
能见度10公里或以上
多云层高于2500英尺

METAR: ULMM 231830Z 07002MPS 9999 BKN025 08/07 Q1017 R13/090070 NOSIG RMK QFE756

时间: 21:45 (18:45 UTC)

预报

该预报发布于1小时和51分钟前的16:54 UTC
预报有效从23日的 18点(UTC)到 24日的 18点(UTC)
风速6节,风向东北,有时为16节阵风
能見度: 3100
少量云层高于300英尺
散云层高于1100英尺
轻雾
短暂存在
从 23日的 18点(UTC)到 23日的 19点(UTC)
风速6节,风向
能見度: 1000
多云层高于300英尺
多云层高于1100英尺, 积雨云.
小阵雨, 轻雾
短暂存在
从 23日的 19点(UTC)到 24日的 06点(UTC)
风速6节,风向
能見度: 0300
多云层高于200英尺
多云层高于1100英尺, 积雨云.
小阵雨, 雾
从 24日的 0600点(UTC)
风速6节,风向北转东北,有时为17节阵风
能見度: 6000
多云层高于1100英尺
短暂存在
从 24日的 06点(UTC)到 24日的 18点(UTC)
风速8节,风向,有时为19节阵风
能見度: 3100
多云层高于1100英尺, 积雨云.
小阵雨, 轻雾

TAF: ULMM 231654Z 2318/2418 04003G08MPS 3100 BR FEW003 SCT011 TEMPO 2318/2319 09003MPS 1000 -SHRA BR BKN003 BKN011CB TEMPO 2319/2406 09003MPS 0300 -SHRA FG BKN002 BKN011CB FM240600 03003G09MPS 6000 BKN011 TEMPO 2406/2418 35004G10MPS 3100 -SHRA BR BKN011CB

超过4000个机场的气象观测和天气预报(METAR&TAF报告)。

可查询的气象台以黄色和红色小点在地图上表示。

将鼠标移到小点上方,可查看气象台名称。

然后点击查看天气观测和预报。

如需切换地图:点击带黑十字的绿色按钮放大地图;点击带横线的绿色按钮缩小地图;或者点击绿色箭头查看邻近地区的地图。


METAR-TAF: